Latest Weather Observations for Cowra

IDN60801

Issued at 9:32 pm EST Monday 6 July 2015 (issued every 30 minutes, with the page automatically refreshed every 10 minutes)

About weather observations | Map of weather stations | Latest weather observations for NSW | Other Formats
Station Details ID: 065111 Name: COWRA AIRPORT AWS Lat: -33.84 Lon: 148.65 Height: 296.5 m
Data from the previous 72 hours. | See also: Recent months at Cowra
Date/Time
EST
Temp
°C
App
Temp
°C
Dew
Point
Rel
Hum
%
Delta-T
°C
Wind Press
QNH
hPa
Press
MSL
hPa
Rain
since 9 am
mm
Dir
 
Spd
km/h
Gust
km/h
Spd
kts
Gust
kts
06/09:30pm 0.2 -2.0 -1.2 90 0.5 CALM 0 0 0 0 1019.6 - 0.0
06/09:00pm 2.6 1.0 2.5 99 0.0 CALM 0 0 0 0 1019.4 1020.0 0.0
06/08:30pm 2.1 0.3 1.5 96 0.2 CALM 0 0 0 0 1019.1 - 0.0
06/08:00pm 2.3 0.3 0.2 86 0.8 CALM 0 0 0 0 1019.0 - 0.0
06/07:30pm 3.3 1.1 1.2 86 0.8 NNE 2 6 1 3 1019.0 - 0.0
06/07:00pm 3.0 0.5 -1.0 75 1.5 SW 2 7 1 4 1019.0 - 0.0
06/06:30pm 5.7 4.0 1.6 75 1.7 CALM 0 0 0 0 1018.8 - 0.0
06/06:00pm 6.7 4.6 2.0 72 1.9 SSW 2 6 1 3 1018.4 1019.0 0.0
06/05:30pm 7.2 4.2 2.3 71 2.1 SW 7 9 4 5 1018.0 - 0.0
06/05:00pm 7.9 3.5 2.6 69 2.3 SW 15 17 8 9 1017.9 - 0.0
06/04:30pm 8.9 4.1 2.7 65 2.7 WSW 17 20 9 11 1017.7 - 0.0
06/04:00pm 10.7 9.4 4.2 64 2.9 CALM 0 7 0 4 1017.6 - 0.0
06/03:30pm 9.7 8.4 3.9 67 2.6 CALM 0 0 0 0 1017.3 - 0.0
06/03:00pm 9.5 6.1 3.9 68 2.5 SSE 11 13 6 7 1017.4 1018.0 0.0
06/02:30pm 10.9 7.8 3.7 61 3.2 NNW 9 15 5 8 1017.1 - 0.0
06/02:00pm 9.7 7.1 4.1 68 2.5 NW 7 13 4 7 1017.3 - 0.0
06/01:30pm 9.5 7.1 4.3 70 2.3 SW 6 9 3 5 1017.2 - 0.0
06/01:00pm 9.8 7.3 4.8 71 2.3 WNW 7 11 4 6 1017.5 - 0.0
06/12:30pm 9.0 6.7 5.6 79 1.6 NNW 7 11 4 6 1017.7 - 0.0
06/12:00pm 7.1 4.8 4.6 84 1.1 N 6 11 3 6 1018.0 1018.8 0.0
06/11:30am 5.6 3.4 3.4 86 0.9 SW 4 7 2 4 1018.8 - 0.0
06/11:00am 4.9 3.4 3.1 88 0.8 CALM 0 0 0 0 1019.0 - 0.0
06/10:30am 3.9 2.5 3.6 98 0.1 CALM 0 0 0 0 1019.4 - 0.0
06/10:00am 3.2 1.3 3.1 99 0.0 N 2 6 1 3 1019.6 - 0.0
06/09:30am 1.7 0.0 1.6 99 0.0 CALM 0 0 0 0 1019.6 - 0.0
06/09:00am 0.5 -1.4 0.4 99 0.0 CALM 0 0 0 0 1019.6 1020.2 0.0
06/08:30am -0.7 -2.8 -0.8 99 0.0 CALM 0 0 0 0 1019.2 - 0.0
06/08:00am -2.0 -4.3 -2.1 99 -0.1 CALM 0 0 0 0 1019.3 - 0.0
06/07:30am -3.1 -5.5 -3.2 99 -0.1 CALM 0 0 0 0 1019.2 - 0.0
06/07:00am -3.4 -5.8 -3.5 99 -0.1 CALM 0 0 0 0 1019.1 - 0.0
06/06:30am -3.2 -5.6 -3.3 99 -0.1 CALM 0 0 0 0 1018.9 - 0.0
06/06:00am -3.4 -5.8 -3.5 99 -0.1 CALM 0 0 0 0 1018.8 1019.5 0.0
06/05:30am -2.6 -4.9 -2.7 99 -0.1 CALM 0 0 0 0 1018.7 - 0.0
06/05:00am -2.4 -5.1 -2.5 99 -0.1 S 2 6 1 3 1018.7 - 0.0
06/04:30am -2.9 -5.3 -3.2 98 0.0 CALM 0 0 0 0 1018.8 - 0.0
06/04:00am -1.9 -4.2 -2.0 99 -0.1 CALM 0 0 0 0 1018.9 - 0.0
06/03:30am -2.5 -4.8 -2.6 99 -0.1 CALM 0 0 0 0 1019.0 - 0.0
06/03:00am -2.5 -4.8 -2.6 99 -0.1 CALM 0 0 0 0 1019.1 1019.8 0.0
06/02:30am -3.1 -5.5 -3.5 97 0.0 CALM 0 0 0 0 1019.3 - 0.0
06/02:00am -1.4 -3.6 -1.8 97 0.1 CALM 0 0 0 0 1019.8 - 0.0
06/01:30am -1.8 -4.1 -2.6 94 0.2 CALM 0 0 0 0 1019.9 - 0.0
06/01:00am -1.3 -3.9 -1.9 96 0.1 SSE 2 7 1 4 1020.0 - 0.0
06/12:30am -0.5 -2.6 -0.6 99 0.0 CALM 0 0 0 0 1020.2 - 0.0
06/12:00am -1.0 -3.2 -1.3 98 0.1 CALM 0 0 0 0 1020.5 1021.2 0.0
 
Date/Time
EST
Temp
°C
App
Temp
°C
Dew
Point
Rel
Hum
%
Delta-T
°C
Wind Press
QNH
hPa
Press
MSL
hPa
Rain
since 9 am
mm
Dir
 
Spd
km/h
Gust
km/h
Spd
kts
Gust
kts
05/11:30pm -0.3 -2.4 -0.9 96 0.2 CALM 0 0 0 0 1020.5 - 0.0
05/11:00pm 0.4 -1.6 -0.4 94 0.3 CALM 0 0 0 0 1020.7 - 0.0
05/10:30pm 1.4 -0.4 1.3 99 0.0 CALM 0 0 0 0 1020.4 - 0.0
05/10:00pm 0.1 -2.0 -0.9 93 0.4 CALM 0 0 0 0 1020.6 - 0.0
05/09:30pm 1.6 -0.2 1.0 96 0.2 CALM 0 0 0 0 1020.3 - 0.0
05/09:00pm 2.3 0.5 1.0 91 0.5 CALM 0 0 0 0 1020.4 1021.1 0.0
05/08:30pm 1.6 -0.4 -0.2 88 0.7 CALM 0 0 0 0 1020.3 - 0.0
05/08:00pm 2.3 0.2 -0.6 81 1.1 CALM 0 0 0 0 1020.1 - 0.0
05/07:30pm 4.5 2.7 1.5 81 1.2 CALM 0 0 0 0 1020.1 - 0.0
05/07:00pm 5.7 4.2 2.9 82 1.2 CALM 0 0 0 0 1020.1 - 0.0
05/06:30pm 5.7 3.0 2.4 79 1.4 SW 6 7 3 4 1020.1 - 0.0
05/06:00pm 8.0 6.6 3.3 72 2.0 CALM 0 0 0 0 1019.9 1020.5 0.0
05/05:30pm 8.8 7.4 3.4 69 2.4 CALM 0 0 0 0 1020.0 - 0.0
05/05:00pm 9.7 7.2 3.9 67 2.6 NNW 6 6 3 3 1019.8 - 0.0
05/04:30pm 10.9 8.4 4.8 66 2.8 N 7 9 4 5 1019.7 - 0.0
05/04:00pm 11.7 8.7 4.2 60 3.4 N 9 13 5 7 1019.7 - 0.0
05/03:30pm 12.6 10.3 4.6 58 3.7 N 6 11 3 6 1019.7 - 0.0
05/03:00pm 12.6 11.0 4.6 58 3.7 NW 2 9 1 5 1019.9 1020.5 0.0
05/02:30pm 12.4 10.4 4.4 58 3.7 W 4 9 2 5 1020.0 - 0.0
05/02:00pm 12.2 11.0 4.7 60 3.5 CALM 0 0 0 0 1020.2 - 0.0
05/01:30pm 11.2 9.5 4.0 61 3.3 SW 2 7 1 4 1020.4 - 0.0
05/01:00pm 10.1 8.0 3.8 65 2.8 SW 4 9 2 5 1020.8 - 0.0
05/12:30pm 9.3 7.2 3.9 69 2.4 SW 4 9 2 5 1021.2 - 0.0
05/12:00pm 8.3 6.1 3.6 72 2.0 SSE 4 7 2 4 1021.6 1022.3 0.0
05/11:30am 7.2 4.6 3.1 75 1.8 S 6 9 3 5 1022.2 - 0.0
05/11:00am 6.0 3.4 3.0 81 1.3 S 6 9 3 5 1022.7 - 0.0
05/10:30am 4.6 1.8 2.3 85 0.9 S 6 9 3 5 1023.2 - 0.0
05/10:00am 3.9 1.8 1.8 86 0.8 ESE 2 7 1 4 1023.6 - 0.0
05/09:30am 2.5 -0.4 1.3 92 0.5 ESE 6 7 3 4 1023.8 - 0.0
05/09:00am 0.3 -2.0 0.2 99 0.0 SW 2 6 1 3 1023.7 1024.4 0.0
05/08:30am -0.5 -2.9 -0.6 99 0.0 ESE 2 6 1 3 1023.7 - 0.0
05/08:00am -1.9 -4.5 -2.0 99 -0.1 ESE 2 9 1 5 1023.5 - 0.0
05/07:30am -1.8 -5.8 -1.9 99 0.0 SSE 9 13 5 7 1023.4 - 0.0
05/07:00am -2.0 -5.4 -2.1 99 -0.1 SE 6 7 3 4 1023.3 - 0.0
05/06:30am -2.5 -6.0 -2.6 99 -0.1 S 6 9 3 5 1022.9 - 0.0
05/06:00am -2.4 -4.7 -2.5 99 -0.1 CALM 0 0 0 0 1022.8 1023.4 0.0
05/05:30am -3.4 -5.9 -3.7 98 0.0 CALM 0 0 0 0 1022.6 - 0.0
05/05:00am -2.6 -6.3 -2.7 99 -0.1 SSE 7 9 4 5 1022.5 - 0.0
05/04:30am -2.8 -5.2 -2.9 99 -0.1 CALM 0 0 0 0 1022.6 - 0.0
05/04:00am -2.1 -5.5 -2.4 98 0.0 E 6 7 3 4 1022.7 - 0.0
05/03:30am -2.6 -6.3 -3.0 97 0.0 SSE 7 9 4 5 1022.8 - 0.0
05/03:00am -2.0 -4.3 -2.1 99 -0.1 CALM 0 0 0 0 1023.1 1023.7 0.0
05/02:30am -1.8 -4.0 -1.9 99 0.0 CALM 0 0 0 0 1023.2 - 0.0
05/02:00am -1.7 -4.0 -2.3 96 0.1 CALM 0 0 0 0 1023.3 - 0.0
05/01:30am 0.0 -3.3 -0.1 99 0.0 ESE 7 11 4 6 1023.5 - 0.0
05/01:00am -0.6 -3.1 -0.9 98 0.1 SE 2 9 1 5 1023.5 - 0.0
05/12:30am -1.3 -3.6 -2.4 92 0.3 CALM 0 4 0 2 1023.8 - 0.0
05/12:00am -0.1 -3.3 -0.2 99 0.0 S 6 7 3 4 1023.8 1024.5 0.0
 
Date/Time
EST
Temp
°C
App
Temp
°C
Dew
Point
Rel
Hum
%
Delta-T
°C
Wind Press
QNH
hPa
Press
MSL
hPa
Rain
since 9 am
mm
Dir
 
Spd
km/h
Gust
km/h
Spd
kts
Gust
kts
04/11:30pm -0.6 -2.7 -0.9 98 0.1 CALM 0 0 0 0 1023.6 - 0.0
04/11:00pm -0.6 -2.8 -1.2 96 0.2 CALM 0 0 0 0 1023.7 - 0.0
04/10:30pm -0.1 -2.3 -1.2 92 0.4 CALM 0 0 0 0 1023.5 - 0.0
04/10:00pm 0.9 -1.1 -0.2 92 0.4 CALM 0 0 0 0 1023.5 - 0.0
04/09:30pm 1.0 -1.0 0.1 94 0.3 CALM 0 0 0 0 1023.5 - 0.0
04/09:00pm 0.7 -1.4 -0.6 91 0.5 CALM 0 0 0 0 1023.8 1024.5 0.0
04/08:30pm 1.1 -1.9 -2.0 80 1.1 E 4 9 2 5 1023.8 - 0.0
04/08:00pm 3.8 1.3 1.4 84 1.0 S 4 9 2 5 1023.9 - 0.0
04/07:30pm 4.5 2.8 2.0 84 1.0 CALM 0 0 0 0 1024.0 - 0.0
04/07:00pm 4.0 2.2 1.2 82 1.1 CALM 0 0 0 0 1024.0 - 0.0
04/06:30pm 4.6 2.8 1.5 80 1.2 CALM 0 0 0 0 1023.8 - 0.0
04/06:00pm 5.0 3.0 0.2 71 1.9 CALM 0 0 0 0 1023.7 1024.4 0.0
04/05:30pm 5.9 4.2 1.6 74 1.8 CALM 0 0 0 0 1023.3 - 0.0
04/05:00pm 7.9 6.3 2.2 67 2.4 CALM 0 0 0 0 1023.3 - 0.0
04/04:30pm 8.2 4.8 2.0 65 2.6 S 9 13 5 7 1023.3 - 0.0
04/04:00pm 9.3 5.6 2.2 61 3.0 SSW 11 15 6 8 1023.5 - 0.0
04/03:30pm 9.6 6.3 2.2 60 3.2 SSW 9 15 5 8 1023.4 - 0.0
04/03:00pm 9.7 6.4 2.6 61 3.1 SSW 9 17 5 9 1023.3 1024.0 0.0
04/02:30pm 9.4 5.6 1.8 59 3.2 SW 11 19 6 10 1023.4 - 0.0
04/02:00pm 9.5 5.4 2.1 60 3.2 SW 13 17 7 9 1023.4 - 0.0
04/01:30pm 9.6 5.6 2.7 62 3.0 S 13 19 7 10 1023.7 - 0.0
04/01:00pm 8.7 5.6 1.6 61 3.0 SSW 7 11 4 6 1023.8 - 0.0
04/12:30pm 9.1 6.4 2.9 65 2.7 SSW 6 11 3 6 1024.4 - 0.0
04/12:00pm 8.4 6.9 3.1 69 2.3 CALM 0 7 0 4 1024.8 1025.6 0.0
04/11:30am 7.2 4.3 2.7 73 1.9 N 7 9 4 5 1025.3 - 0.0
04/11:00am 6.2 3.2 2.3 76 1.6 N 7 9 4 5 1025.7 - 0.0
04/10:30am 5.6 3.3 2.6 81 1.2 ENE 4 7 2 4 1026.0 - 0.0
04/10:00am 3.5 1.7 1.4 86 0.8 CALM 0 0 0 0 1025.9 - 0.0
04/09:30am 2.4 0.1 0.3 86 0.8 WNW 2 6 1 3 1025.8 - 0.0
04/09:00am 1.6 -0.3 0.4 92 0.4 CALM 0 0 0 0 1025.4 1026.1 0.2
04/08:30am 0.0 -2.0 -0.1 99 0.0 CALM 0 0 0 0 1025.4 - 0.0
04/08:00am -1.5 -3.7 -1.6 99 0.0 CALM 0 0 0 0 1025.4 - 0.0
04/07:30am -1.9 -4.2 -2.0 99 -0.1 CALM 0 0 0 0 1025.1 - 0.0
04/07:00am -1.2 -3.4 -1.3 99 0.0 CALM 0 0 0 0 1024.9 - 0.0
04/06:30am -1.5 -3.7 -1.6 99 0.0 CALM 0 0 0 0 1024.9 - 0.0
04/06:00am -1.5 -3.7 -1.6 99 0.0 CALM 0 0 0 0 1024.6 1025.2 0.0
04/05:30am -1.7 -3.9 -1.8 99 0.0 CALM 0 0 0 0 1024.4 - 0.0
04/05:00am -1.8 -4.0 -1.9 99 0.0 CALM 0 0 0 0 1024.4 - 0.0
04/04:30am -1.8 -5.4 -2.2 97 0.1 S 7 7 4 4 1024.5 - 0.0
04/04:00am -1.2 -4.5 -1.3 99 0.0 E 6 9 3 5 1024.4 - 0.0
04/03:30am -0.5 -2.6 -0.9 97 0.1 CALM 0 4 0 2 1024.9 - 0.0
04/03:00am -0.7 -4.2 -1.1 97 0.1 SSW 7 9 4 5 1025.0 1025.8 0.0
04/02:30am -0.2 -3.4 -0.6 97 0.1 S 6 7 3 4 1024.9 - 0.0
04/02:00am 0.2 -1.8 0.1 99 0.0 CALM 0 0 0 0 1025.1 - 0.0
04/01:30am -0.4 -2.5 -0.5 99 0.0 CALM 0 0 0 0 1025.7 - 0.0
04/01:00am -0.6 -2.7 -0.7 99 0.0 CALM 0 0 0 0 1025.6 - 0.0
04/12:30am -0.6 -2.7 -0.9 98 0.1 CALM 0 0 0 0 1025.8 - 0.0
04/12:00am -0.5 -2.6 -1.1 96 0.2 CALM 0 7 0 4 1026.0 1026.8 0.0
 
Date/Time
EST
Temp
°C
App
Temp
°C
Dew
Point
Rel
Hum
%
Delta-T
°C
Wind Press
QNH
hPa
Press
MSL
hPa
Rain
since 9 am
mm
Dir
 
Spd
km/h
Gust
km/h
Spd
kts
Gust
kts
03/11:30pm -0.1 -2.1 -0.4 98 0.1 CALM 0 0 0 0 1025.7 - 0.0
03/11:00pm -0.3 -2.4 -0.7 97 0.1 CALM 0 0 0 0 1026.2 - 0.0
03/10:30pm -0.7 -2.9 -1.8 92 0.4 CALM 0 0 0 0 1026.3 - 0.0
03/10:00pm 0.5 -1.6 -0.5 93 0.4 CALM 0 0 0 0 1026.1 - 0.0

Other Formats:

Comma delimited format used in spreadsheet applications
http://www.bom.gov.au/fwo/IDN60801/IDN60801.95721.axf

JavaScript Object Notation format (JSON) in row-major order
http://www.bom.gov.au/fwo/IDN60801/IDN60801.95721.json